Terminal Aerodrome Forecast
Issued by NWS

Home | Current Version | Previous Version | Text Only | Print | Product List | Glossary On
Versions: 1 2 3 4 5 6 7 8 9 10 11 12 13
000
FTAK31 PAJN 060500
TAFAPG
TAF
PAPG 060530Z 0606/0706 VRB02KT P6SM -RA SCT010 BKN025 OVC035
     FM061000 24003KT P6SM VCSH BKN008 OVC015
     FM061800 VRB03KT P6SM VCSH SCT008 BKN015 OVC045
     FM062200 VRB03KT P6SM SCT015 OVC045
      AMD LTD TO CLD VIS AND WIND 0606/0615=

USA.gov is the U.S. government's official web portal to all federal, state and local government web resources and services.